Time;durP1;ratioP1;P1;durP2;ratioP2;P2;SDS_P1;SDS_P2;PMS_P1;PMS_P2;Temp;Humidity;BMP_temperature;BMP_pressure;BME280_temperature;BME280_humidity;BME280_pressure;Samples;Min_cycle;Max_cycle;Signal;HPM_P1;HPM_P2
2021/06/13 00:02:00;;;;;;;11.07;8.52;;;460.80;2380.80;;;;;;5047564;28;20031;-71
2021/06/13 00:04:25;;;;;;;10.35;8.90;;;460.80;2380.80;;;;;;5053294;28;20104;-70
2021/06/13 00:06:53;;;;;;;12.13;8.77;;;436.10;2355.20;;;;;;5054702;28;20028;-71
2021/06/13 00:09:20;;;;;;;10.38;8.75;;;460.90;2380.80;;;;;;5073395;28;20024;-72
2021/06/13 00:11:46;;;;;;;12.27;9.25;;;460.90;2380.80;;;;;;5073329;28;20085;-72
2021/06/13 00:14:12;;;;;;;11.10;8.75;;;460.80;2380.80;;;;;;5072870;28;20020;-72
2021/06/13 00:16:38;;;;;;;9.98;8.82;;;436.10;2355.20;;;;;;5073174;28;20059;-72
2021/06/13 00:19:04;;;;;;;10.60;9.02;;;460.80;2380.80;;;;;;5057505;28;20129;-71
2021/06/13 00:21:30;;;;;;;12.65;10.23;;;460.90;2380.80;;;;;;5062398;28;20041;-72
2021/06/13 00:23:56;;;;;;;12.75;9.15;;;460.80;2380.80;;;;;;5052595;28;20025;-71
2021/06/13 00:26:21;;;;;;;11.23;10.00;;;436.10;2355.20;;;;;;5046039;28;20135;-70
2021/06/13 00:28:48;;;;;;;10.95;9.55;;;436.00;2355.20;;;;;;5052909;28;20695;-72
2021/06/13 00:31:14;;;;;;;11.75;9.68;;;436.10;2355.20;;;;;;5052905;28;20021;-78
2021/06/13 00:33:39;;;;;;;11.57;9.65;;;436.10;2355.20;;;;;;5052636;28;20029;-79
2021/06/13 00:36:06;;;;;;;11.35;10.15;;;436.00;2355.20;;;;;;5052687;28;20485;-78
2021/06/13 00:38:31;;;;;;;10.55;9.45;;;436.00;2355.20;;;;;;5057425;28;20112;-74
2021/06/13 00:40:57;;;;;;;10.75;9.65;;;435.90;2355.20;;;;;;5069803;28;20051;-73
2021/06/13 00:43:23;;;;;;;11.77;10.40;;;435.90;2355.20;;;;;;5071614;28;20027;-74
2021/06/13 00:45:49;;;;;;;10.85;9.82;;;435.90;2355.20;;;;;;5071961;28;20078;-70
2021/06/13 00:48:14;;;;;;;10.70;9.60;;;435.90;2355.20;;;;;;5069180;28;20049;-75
2021/06/13 00:50:47;;;;;;;11.82;9.40;;;435.90;2355.20;;;;;;5069647;28;20095;-75
2021/06/13 00:53:13;;;;;;;10.93;9.73;;;436.00;2355.20;;;;;;5068628;28;20386;-75
2021/06/13 00:55:40;;;;;;;10.75;9.60;;;436.10;2355.20;;;;;;5068305;28;20028;-73
2021/06/13 00:58:06;;;;;;;11.50;9.80;;;436.10;2355.20;;;;;;5068393;28;20148;-72
2021/06/13 01:00:33;;;;;;;11.55;10.25;;;436.10;2355.20;;;;;;5068718;28;20040;-72
2021/06/13 01:02:59;;;;;;;11.52;10.30;;;436.10;2355.20;;;;;;5066694;28;20008;-71
2021/06/13 01:05:26;;;;;;;12.73;11.02;;;436.00;2355.20;;;;;;5068597;28;20040;-69
2021/06/13 01:08:18;;;;;;;13.30;11.90;;;435.90;2355.20;;;;;;5069666;28;20032;-74
2021/06/13 01:10:54;;;;;;;15.57;12.05;;;435.90;2355.20;;;;;;5068840;28;20033;-72
2021/06/13 01:13:37;;;;;;;15.32;13.27;;;435.80;2355.20;;;;;;5070942;28;20029;-74
2021/06/13 01:16:23;;;;;;;14.90;13.20;;;435.80;2355.20;;;;;;5015479;28;20026;-71
2021/06/13 01:18:57;;;;;;;15.27;13.68;;;435.80;2355.20;;;;;;5066312;28;20429;-75
2021/06/13 01:21:47;;;;;;;15.45;12.02;;;435.90;2355.20;;;;;;5069431;28;20048;-69
2021/06/13 01:24:30;;;;;;;14.93;12.25;;;436.00;2355.20;;;;;;5027171;28;20041;-76
2021/06/13 01:27:24;;;;;;;13.73;12.25;;;436.00;2355.20;;;;;;5051862;28;20108;-76
2021/06/13 01:29:51;;;;;;;15.40;11.63;;;436.00;2355.20;;;;;;5048026;28;20033;-72
2021/06/13 01:32:22;;;;;;;13.20;11.48;;;436.00;2355.20;;;;;;5052165;28;20017;-71
2021/06/13 01:34:58;;;;;;;12.65;10.88;;;436.00;2355.20;;;;;;5052004;28;20562;-71
2021/06/13 01:37:27;;;;;;;11.77;10.52;;;436.00;2355.20;;;;;;5033403;28;20021;-71
2021/06/13 01:39:59;;;;;;;13.70;10.32;;;436.00;2355.20;;;;;;5052095;28;20061;-71
2021/06/13 01:42:27;;;;;;;11.38;10.10;;;436.00;2355.20;;;;;;5051868;28;20025;-69
2021/06/13 01:44:57;;;;;;;11.77;10.57;;;436.00;2355.20;;;;;;5053114;28;20025;-72
2021/06/13 01:47:24;;;;;;;12.10;10.07;;;436.00;2355.20;;;;;;5056116;28;20017;-70
2021/06/13 01:49:51;;;;;;;11.15;10.00;;;435.90;2355.20;;;;;;5055920;28;20029;-70
2021/06/13 01:52:18;;;;;;;11.98;9.95;;;435.90;2355.20;;;;;;5056292;28;20029;-69
2021/06/13 01:54:46;;;;;;;11.10;10.00;;;435.90;2355.20;;;;;;5055684;28;20028;-71
2021/06/13 01:57:14;;;;;;;13.40;9.95;;;435.90;2355.20;;;;;;5055742;28;20483;-73
2021/06/13 01:59:40;;;;;;;11.95;10.15;;;436.00;2355.20;;;;;;5055586;28;20303;-79
2021/06/13 02:02:07;;;;;;;10.60;9.10;;;436.00;2355.20;;;;;;5055559;28;20032;-75
2021/06/13 02:04:36;;;;;;;10.43;8.90;;;436.00;2355.20;;;;;;5037955;28;20025;-75
2021/06/13 02:07:03;;;;;;;10.45;9.35;;;436.00;2355.20;;;;;;5055584;28;20021;-76
2021/06/13 02:09:31;;;;;;;11.65;9.75;;;436.10;2355.20;;;;;;5055953;28;20025;-76
2021/06/13 02:12:00;;;;;;;10.15;9.10;;;436.10;2355.20;;;;;;5055553;28;20171;-76
2021/06/13 02:14:28;;;;;;;11.38;9.73;;;436.10;2355.20;;;;;;5055526;28;20286;-78
2021/06/13 02:16:56;;;;;;;10.77;9.65;;;436.10;2355.20;;;;;;5055374;28;20381;-70
2021/06/13 02:19:25;;;;;;;11.82;10.38;;;436.10;2355.20;;;;;;5055459;28;20017;-71
2021/06/13 02:21:55;;;;;;;11.88;10.15;;;436.10;2355.20;;;;;;5055283;28;20021;-71
2021/06/13 02:24:34;;;;;;;10.90;9.63;;;436.00;2355.20;;;;;;5055232;28;20035;-71
2021/06/13 02:27:01;;;;;;;10.15;9.13;;;435.90;2355.20;;;;;;5055532;28;20017;-71
2021/06/13 02:29:28;;;;;;;9.45;8.45;;;435.80;2355.20;;;;;;5055422;28;20427;-71
2021/06/13 02:31:56;;;;;;;10.70;8.45;;;435.80;2355.20;;;;;;5055162;28;20021;-71
2021/06/13 02:34:28;;;;;;;10.98;8.38;;;435.70;2355.20;;;;;;5055189;28;20045;-71
2021/06/13 02:36:57;;;;;;;11.20;9.32;;;435.70;2355.20;;;;;;5055669;28;20069;-73
2021/06/13 02:39:23;;;;;;;9.57;8.57;;;435.80;2355.20;;;;;;5055149;28;20052;-72
2021/06/13 02:41:50;;;;;;;10.35;9.13;;;435.70;2355.20;;;;;;5054980;28;20044;-71
2021/06/13 02:44:16;;;;;;;10.43;9.13;;;435.80;2355.20;;;;;;5055150;28;20029;-73
2021/06/13 02:46:42;;;;;;;11.73;9.52;;;435.80;2355.20;;;;;;5054653;28;20017;-73
2021/06/13 02:49:10;;;;;;;13.07;10.30;;;435.80;2355.20;;;;;;5055109;28;20075;-73
2021/06/13 02:51:41;;;;;;;12.18;10.15;;;435.70;2355.20;;;;;;5054693;28;20017;-71
2021/06/13 02:54:10;;;;;;;12.38;10.10;;;435.50;2355.20;;;;;;5055035;28;20025;-71
2021/06/13 02:56:55;;;;;;;12.05;10.80;;;435.40;2355.20;;;;;;5053167;28;20021;-73
2021/06/13 02:59:47;;;;;;;13.02;10.82;;;435.30;2355.20;;;;;;5054630;28;20053;-69
2021/06/13 03:02:20;;;;;;;13.95;11.50;;;435.20;2355.20;;;;;;5054733;28;20021;-71
2021/06/13 03:04:47;;;;;;;13.70;12.02;;;410.50;2355.20;;;;;;5054918;28;20025;-72
2021/06/13 03:07:17;;;;;;;14.38;12.32;;;410.50;2355.20;;;;;;5054343;28;20044;-71
2021/06/13 03:09:43;;;;;;;13.97;12.47;;;410.50;2355.20;;;;;;5055000;28;20435;-71
2021/06/13 03:12:10;;;;;;;13.35;11.98;;;410.40;2355.20;;;;;;5054561;28;20375;-71
2021/06/13 03:14:40;;;;;;;14.68;12.25;;;410.50;2355.20;;;;;;5054590;28;20021;-69
2021/06/13 03:17:08;;;;;;;14.15;12.55;;;410.50;2355.20;;;;;;5054354;28;20017;-70
2021/06/13 03:19:34;;;;;;;13.15;11.82;;;410.50;2355.20;;;;;;5054577;28;20387;-73
2021/06/13 03:22:02;;;;;;;13.93;12.43;;;435.20;2355.20;;;;;;5054093;28;20029;-76
2021/06/13 03:24:30;;;;;;;15.25;12.90;;;435.20;2355.20;;;;;;5054546;28;20017;-71
2021/06/13 03:26:57;;;;;;;14.68;12.52;;;435.20;2355.20;;;;;;5054108;28;20471;-71
2021/06/13 03:29:25;;;;;;;13.43;12.13;;;435.20;2355.20;;;;;;5054106;28;20017;-70
2021/06/13 03:31:51;;;;;;;14.48;12.23;;;435.20;2355.20;;;;;;5054119;28;20029;-70
2021/06/13 03:34:18;;;;;;;15.70;12.45;;;435.20;2355.20;;;;;;5054018;28;20017;-69
2021/06/13 03:36:46;;;;;;;14.20;12.45;;;435.20;2355.20;;;;;;5054216;28;20033;-71
2021/06/13 03:39:14;;;;;;;14.00;12.60;;;410.50;2355.20;;;;;;5053977;28;20025;-70
2021/06/13 03:41:40;;;;;;;15.65;13.43;;;410.50;2355.20;;;;;;5054217;28;20090;-71
2021/06/13 03:44:06;;;;;;;13.70;12.30;;;410.50;2355.20;;;;;;5053744;28;20037;-71
2021/06/13 03:46:34;;;;;;;15.23;12.27;;;435.20;2355.20;;;;;;5053766;28;20079;-70
2021/06/13 03:49:01;;;;;;;13.55;12.18;;;435.30;2355.20;;;;;;5054058;28;20117;-70
2021/06/13 03:51:26;;;;;;;13.88;12.48;;;435.40;2355.20;;;;;;5053869;28;20479;-70
2021/06/13 03:53:55;;;;;;;14.55;12.60;;;435.50;2355.20;;;;;;5054084;28;20032;-70
2021/06/13 03:56:25;;;;;;;13.68;12.23;;;435.50;2355.20;;;;;;5053753;28;20021;-70
2021/06/13 03:58:52;;;;;;;16.08;12.43;;;435.60;2355.20;;;;;;5053166;28;20047;-70
2021/06/13 04:01:21;;;;;;;13.43;12.05;;;435.60;2355.20;;;;;;5053738;28;20017;-71
2021/06/13 04:03:52;;;;;;;14.32;12.02;;;435.80;2355.20;;;;;;5053408;28;20104;-70
2021/06/13 04:06:22;;;;;;;13.70;12.23;;;435.80;2355.20;;;;;;5053438;28;20075;-70
2021/06/13 04:08:49;;;;;;;15.48;12.43;;;435.80;2355.20;;;;;;5052968;28;20386;-70
2021/06/13 04:11:17;;;;;;;14.63;12.77;;;435.80;2355.20;;;;;;5053479;28;20032;-70
2021/06/13 04:13:44;;;;;;;15.50;12.10;;;435.80;2355.20;;;;;;5053194;28;20390;-70
2021/06/13 04:16:11;;;;;;;14.38;11.45;;;435.80;2355.20;;;;;;5053646;28;20029;-71
2021/06/13 04:18:37;;;;;;;14.13;12.18;;;435.80;2355.20;;;;;;5053075;28;20025;-71
2021/06/13 04:21:08;;;;;;;13.05;11.57;;;435.80;2355.20;;;;;;5053186;28;20021;-70
2021/06/13 04:23:34;;;;;;;14.30;11.50;;;435.70;2355.20;;;;;;5053175;28;20079;-71
2021/06/13 04:26:00;;;;;;;13.00;11.48;;;435.80;2355.20;;;;;;5053046;28;20483;-71
2021/06/13 04:28:26;;;;;;;13.43;12.02;;;435.80;2355.20;;;;;;5052966;28;20029;-70
2021/06/13 04:31:04;;;;;;;14.65;12.10;;;435.80;2355.20;;;;;;5065418;28;20028;-69
2021/06/13 04:33:30;;;;;;;14.07;12.50;;;435.80;2355.20;;;;;;5052751;28;20025;-70
2021/06/13 04:35:56;;;;;;;12.82;11.38;;;435.80;2355.20;;;;;;5040974;28;20087;-70
2021/06/13 04:38:22;;;;;;;17.20;12.40;;;435.80;2355.20;;;;;;5052660;28;20025;-70
2021/06/13 04:40:48;;;;;;;13.43;11.77;;;435.70;2355.20;;;;;;5052860;28;20477;-69
2021/06/13 04:43:14;;;;;;;13.60;12.20;;;435.80;2355.20;;;;;;5057998;28;20104;-70
2021/06/13 04:45:40;;;;;;;13.43;11.75;;;435.80;2355.20;;;;;;5062002;28;20534;-69
2021/06/13 04:48:07;;;;;;;14.55;11.63;;;436.00;2355.20;;;;;;5052496;28;20079;-70
2021/06/13 04:50:39;;;;;;;12.05;10.75;;;436.10;2355.20;;;;;;5052839;28;20024;-70
2021/06/13 04:53:46;;;;;;;14.75;11.27;;;460.80;2380.80;;;;;;5052476;28;20021;-70
2021/06/13 04:56:17;;;;;;;14.15;11.05;;;460.90;2380.80;;;;;;5052903;28;20111;-70
2021/06/13 04:58:43;;;;;;;13.43;11.45;;;460.90;2380.80;;;;;;5034910;28;20099;-70
2021/06/13 05:01:09;;;;;;;13.30;11.90;;;461.00;2380.80;;;;;;5052679;28;20425;-70
2021/06/13 05:03:35;;;;;;;13.50;11.35;;;460.90;2380.80;;;;;;5052587;28;20021;-70
2021/06/13 05:06:02;;;;;;;13.13;11.68;;;461.00;2380.80;;;;;;5052517;28;20024;-70
2021/06/13 05:08:28;;;;;;;13.43;12.00;;;461.00;2380.80;;;;;;5052232;28;20032;-70
2021/06/13 05:10:55;;;;;;;13.48;12.07;;;461.10;2380.80;;;;;;5052542;28;20034;-70
2021/06/13 05:13:20;;;;;;;14.73;12.30;;;461.10;2380.80;;;;;;5052303;28;20112;-71
2021/06/13 05:15:46;;;;;;;14.00;11.50;;;461.10;2380.80;;;;;;5052102;28;20064;-71
2021/06/13 05:18:12;;;;;;;13.52;12.13;;;461.20;2380.80;;;;;;5052110;28;20057;-71
2021/06/13 05:20:38;;;;;;;12.68;11.23;;;461.30;2380.80;;;;;;5051562;28;20051;-70
2021/06/13 05:23:06;;;;;;;13.30;12.00;;;461.40;2380.80;;;;;;5052379;28;20036;-70
2021/06/13 05:25:35;;;;;;;14.18;12.10;;;461.40;2380.80;;;;;;5052404;28;20028;-70
2021/06/13 05:28:02;;;;;;;14.43;12.13;;;461.50;2380.80;;;;;;5052160;28;20112;-72
2021/06/13 05:30:30;;;;;;;13.60;12.10;;;461.50;2380.80;;;;;;5051926;28;20029;-70
2021/06/13 05:32:56;;;;;;;14.15;12.65;;;461.50;2380.80;;;;;;5038755;28;20024;-69
2021/06/13 05:35:23;;;;;;;14.48;12.98;;;461.50;2380.80;;;;;;5052101;28;20052;-70
2021/06/13 05:37:49;;;;;;;14.70;12.02;;;461.50;2380.80;;;;;;5051906;28;20421;-69
2021/06/13 05:40:16;;;;;;;15.00;12.32;;;461.50;2380.80;;;;;;5052196;28;20032;-72
2021/06/13 05:42:42;;;;;;;13.13;11.48;;;461.40;2380.80;;;;;;5052079;28;20013;-71
2021/06/13 05:45:09;;;;;;;13.48;12.07;;;461.40;2380.80;;;;;;5051861;28;20025;-70
2021/06/13 05:47:35;;;;;;;13.57;12.18;;;461.50;2380.80;;;;;;5052502;28;20075;-70
2021/06/13 05:50:01;;;;;;;12.90;11.52;;;461.50;2380.80;;;;;;5033882;28;20025;-76
2021/06/13 05:52:27;;;;;;;13.18;11.80;;;461.50;2380.80;;;;;;5051961;28;20060;-75
2021/06/13 05:54:57;;;;;;;13.20;11.80;;;461.60;2380.80;;;;;;5051803;28;20029;-77
2021/06/13 05:57:24;;;;;;;13.27;11.98;;;461.60;2380.80;;;;;;5051994;28;20043;-72
2021/06/13 05:59:50;;;;;;;13.90;12.35;;;461.70;2380.80;;;;;;5052030;28;20379;-69
2021/06/13 06:02:16;;;;;;;13.50;12.10;;;486.40;2380.80;;;;;;5051954;28;20051;-70
2021/06/13 06:04:42;;;;;;;14.73;12.43;;;486.50;2380.80;;;;;;5051510;28;20021;-70
2021/06/13 06:07:07;;;;;;;13.93;12.45;;;486.40;2380.80;;;;;;5051652;28;20120;-70
2021/06/13 06:09:33;;;;;;;14.05;12.55;;;486.60;2380.80;;;;;;5051776;28;20029;-70
2021/06/13 06:11:59;;;;;;;13.90;12.43;;;486.80;2380.80;;;;;;5051857;28;20029;-72
2021/06/13 06:14:25;;;;;;;14.15;12.65;;;486.80;2380.80;;;;;;5051624;28;20035;-70
2021/06/13 06:16:50;;;;;;;14.38;12.70;;;486.80;2380.80;;;;;;5051880;28;20091;-70
2021/06/13 06:19:16;;;;;;;15.38;13.13;;;487.00;2380.80;;;;;;5051440;28;20021;-73
2021/06/13 06:21:42;;;;;;;14.52;12.90;;;487.00;2380.80;;;;;;5051826;28;20479;-73
2021/06/13 06:24:09;;;;;;;16.85;13.05;;;487.10;2380.80;;;;;;5051399;28;20360;-73
2021/06/13 06:26:34;;;;;;;15.68;13.60;;;487.20;2380.80;;;;;;5051800;28;20025;-70
2021/06/13 06:29:00;;;;;;;15.20;13.60;;;487.20;2380.80;;;;;;5051432;28;20160;-70
2021/06/13 06:31:26;;;;;;;18.00;14.25;;;487.00;2380.80;;;;;;5053605;28;20025;-71
2021/06/13 06:33:51;;;;;;;15.82;14.13;;;487.00;2380.80;;;;;;5055380;28;20040;-70
2021/06/13 06:36:17;;;;;;;16.70;14.32;;;486.90;2380.80;;;;;;5054796;28;20025;-70
2021/06/13 06:38:43;;;;;;;15.35;13.75;;;487.00;2380.80;;;;;;5055137;28;20036;-70
2021/06/13 06:41:08;;;;;;;16.23;14.07;;;487.00;2380.80;;;;;;5055055;28;20051;-70
2021/06/13 06:43:34;;;;;;;15.55;13.20;;;487.10;2380.80;;;;;;5055193;28;20017;-70
2021/06/13 06:46:00;;;;;;;18.30;14.55;;;487.30;2380.80;;;;;;5054867;28;20025;-70
2021/06/13 06:48:26;;;;;;;17.40;14.57;;;487.30;2380.80;;;;;;5054861;28;20088;-73
2021/06/13 06:50:51;;;;;;;16.92;14.52;;;487.30;2380.80;;;;;;5054853;28;20052;-73
2021/06/13 06:53:17;;;;;;;15.38;13.65;;;487.10;2380.80;;;;;;5054884;28;20548;-70
2021/06/13 06:55:43;;;;;;;16.38;13.88;;;487.10;2380.80;;;;;;5036870;28;20056;-71
2021/06/13 06:58:08;;;;;;;17.25;15.07;;;487.20;2380.80;;;;;;5054548;28;20509;-70
2021/06/13 07:00:34;;;;;;;16.00;14.30;;;487.20;2380.80;;;;;;5054704;28;20033;-69
2021/06/13 07:03:00;;;;;;;16.58;14.18;;;487.20;2380.80;;;;;;5054691;28;20025;-69
2021/06/13 07:05:26;;;;;;;15.98;14.07;;;487.10;2380.80;;;;;;5054741;28;20032;-71
2021/06/13 07:07:51;;;;;;;17.00;13.85;;;487.20;2380.80;;;;;;5054805;28;20414;-72
2021/06/13 07:10:17;;;;;;;14.35;11.88;;;487.20;2380.80;;;;;;5054294;28;20037;-69
2021/06/13 07:12:43;;;;;;;13.18;11.77;;;487.30;2380.80;;;;;;5055027;28;20116;-72
2021/06/13 07:15:10;;;;;;;12.35;11.05;;;487.30;2380.80;;;;;;5054469;28;20070;-71
2021/06/13 07:17:36;;;;;;;11.40;9.80;;;487.30;2380.80;;;;;;5054799;28;20021;-71
2021/06/13 07:20:06;;;;;;;10.30;9.30;;;487.20;2380.80;;;;;;5054280;28;20025;-71
2021/06/13 07:22:31;;;;;;;10.23;9.23;;;487.10;2380.80;;;;;;5055064;28;20021;-70
2021/06/13 07:24:57;;;;;;;10.82;8.75;;;487.10;2380.80;;;;;;5054664;28;20043;-72
2021/06/13 07:27:24;;;;;;;10.27;8.35;;;487.10;2380.80;;;;;;5064011;28;20024;-70
2021/06/13 07:29:50;;;;;;;10.20;8.73;;;487.00;2380.80;;;;;;5071490;28;20044;-70
2021/06/13 07:32:16;;;;;;;9.90;8.90;;;487.00;2380.80;;;;;;5066707;28;20048;-71
2021/06/13 07:34:42;;;;;;;10.30;8.70;;;487.00;2380.80;;;;;;5072758;28;20114;-70
2021/06/13 07:37:09;;;;;;;8.60;7.32;;;487.00;2380.80;;;;;;5070873;28;20475;-70
2021/06/13 07:39:35;;;;;;;7.93;7.13;;;487.00;2380.80;;;;;;5054747;28;20071;-74
2021/06/13 07:42:02;;;;;;;8.10;7.18;;;487.00;2380.80;;;;;;5053298;28;20021;-70
2021/06/13 07:44:29;;;;;;;7.78;7.05;;;487.10;2380.80;;;;;;5053618;28;20052;-74
2021/06/13 07:46:56;;;;;;;7.55;6.70;;;487.20;2380.80;;;;;;5053689;28;20489;-71
2021/06/13 07:49:22;;;;;;;7.85;7.05;;;487.30;2380.80;;;;;;5053901;28;20037;-71
2021/06/13 07:51:50;;;;;;;8.27;6.93;;;487.30;2380.80;;;;;;5059559;28;20021;-75
2021/06/13 07:54:16;;;;;;;7.93;7.05;;;512.10;2380.80;;;;;;5071799;28;20099;-71
2021/06/13 07:56:42;;;;;;;9.82;7.00;;;512.30;2380.80;;;;;;5070120;28;20142;-74
2021/06/13 07:59:09;;;;;;;8.50;7.20;;;512.30;2380.80;;;;;;5053661;28;20410;-71
2021/06/13 08:01:35;;;;;;;8.57;7.35;;;512.30;2380.80;;;;;;5053419;28;20028;-72
2021/06/13 08:04:00;;;;;;;8.50;7.60;;;512.30;2380.80;;;;;;5055819;28;20029;-74
2021/06/13 08:06:26;;;;;;;8.93;7.72;;;512.40;2380.80;;;;;;5071202;28;20867;-79
2021/06/13 08:08:52;;;;;;;8.77;7.75;;;512.50;2380.80;;;;;;5071533;28;20063;-82
2021/06/13 08:11:17;;;;;;;8.85;7.80;;;512.60;2380.80;;;;;;5052372;28;20166;-75
2021/06/13 08:13:43;;;;;;;8.63;7.72;;;512.70;2380.80;;;;;;5068609;28;20055;-72
2021/06/13 08:16:09;;;;;;;9.85;8.27;;;537.60;2406.40;;;;;;5066603;28;20032;-73
2021/06/13 08:18:35;;;;;;;9.27;8.38;;;538.10;2406.40;;;;;;5067316;28;20023;-73
2021/06/13 08:21:01;;;;;;;9.65;8.70;;;563.30;2432.00;;;;;;5062685;28;20024;-74
2021/06/13 08:23:27;;;;;;;10.27;8.82;;;563.50;2432.00;;;;;;5068001;28;20052;-71
2021/06/13 08:25:53;;;;;;;10.07;8.73;;;563.70;2432.00;;;;;;5063541;28;20027;-74
2021/06/13 08:28:19;;;;;;;9.20;8.30;;;563.70;2432.00;;;;;;5066572;28;20024;-72
2021/06/13 08:30:46;;;;;;;9.32;8.40;;;563.70;2432.00;;;;;;5065694;28;20814;-72
2021/06/13 08:33:12;;;;;;;9.32;8.38;;;563.60;2432.00;;;;;;5066691;28;20016;-72
2021/06/13 08:35:37;;;;;;;9.98;8.98;;;563.70;2432.00;;;;;;5068560;28;20024;-75
2021/06/13 08:38:05;;;;;;;8.80;7.90;;;563.80;2432.00;;;;;;5063213;28;20048;-74
2021/06/13 08:40:31;;;;;;;7.95;7.15;;;588.80;2432.00;;;;;;5065660;28;20135;-73
2021/06/13 08:42:58;;;;;;;9.13;7.90;;;589.20;2432.00;;;;;;5067755;28;20021;-74
2021/06/13 08:45:25;;;;;;;8.93;7.97;;;589.50;2432.00;;;;;;5067315;28;20034;-74
2021/06/13 08:47:54;;;;;;;8.27;7.25;;;589.70;2432.00;;;;;;5069947;28;20082;-74
2021/06/13 08:50:20;;;;;;;8.20;7.10;;;614.70;2432.00;;;;;;5062012;28;20104;-73
2021/06/13 08:52:50;;;;;;;7.85;7.00;;;615.10;2432.00;;;;;;5069503;28;20470;-71
2021/06/13 08:55:17;;;;;;;7.13;6.43;;;640.00;2432.00;;;;;;5065010;28;20467;-74
2021/06/13 08:57:43;;;;;;;7.75;7.05;;;640.10;2432.00;;;;;;5068229;28;21366;-71
2021/06/13 09:00:11;;;;;;;7.72;6.93;;;640.10;2432.00;;;;;;5067035;28;20115;-72
2021/06/13 09:02:37;;;;;;;6.68;5.95;;;640.20;2432.00;;;;;;5069929;28;20020;-71
2021/06/13 09:05:04;;;;;;;6.38;5.72;;;640.20;2432.00;;;;;;5069238;28;20028;-71
2021/06/13 09:07:30;;;;;;;6.93;6.07;;;640.50;2432.00;;;;;;5139339;22;20402;-73
2021/06/13 09:10:07;;;;;;;6.15;5.30;;;665.60;2432.00;;;;;;5071127;28;20021;-73
2021/06/13 09:12:35;;;;;;;5.75;5.15;;;665.70;2432.00;;;;;;5073114;28;20024;-71
2021/06/13 09:15:01;;;;;;;5.30;4.57;;;665.70;2432.00;;;;;;5074687;28;20021;-71
2021/06/13 09:17:29;;;;;;;5.45;4.65;;;665.60;2432.00;;;;;;5073931;28;20052;-72
2021/06/13 09:20:17;;;;;;;5.55;4.32;;;640.80;2432.00;;;;;;5072507;28;20020;-74
2021/06/13 09:23:06;;;;;;;5.22;4.25;;;640.40;2432.00;;;;;;5072454;28;20028;-72
2021/06/13 09:25:34;;;;;;;5.60;4.13;;;640.00;2432.00;;;;;;5071624;28;20031;-72
2021/06/13 09:28:12;;;;;;;4.85;4.13;;;615.10;2432.00;;;;;;5072180;28;20077;-75
2021/06/13 09:30:41;;;;;;;5.13;4.22;;;615.00;2432.00;;;;;;5075452;28;20482;-75
2021/06/13 09:33:12;;;;;;;5.37;4.20;;;614.90;2432.00;;;;;;5072438;28;20056;-77
2021/06/13 09:35:39;;;;;;;5.00;4.35;;;614.90;2432.00;;;;;;5059273;28;20109;-75
2021/06/13 09:38:14;;;;;;;5.57;4.47;;;614.90;2432.00;;;;;;5077719;28;20023;-74
2021/06/13 09:40:43;;;;;;;6.05;4.38;;;614.80;2432.00;;;;;;5091891;28;20023;-72
2021/06/13 09:43:33;;;;;;;5.90;4.80;;;615.00;2432.00;;;;;;5089034;28;20081;-75
2021/06/13 09:46:00;;;;;;;7.40;5.90;;;615.00;2432.00;;;;;;5086271;28;20505;-73
2021/06/13 09:48:27;;;;;;;7.32;6.10;;;614.80;2432.00;;;;;;5091870;28;20034;-73
2021/06/13 09:51:10;;;;;;;7.45;6.57;;;614.80;2432.00;;;;;;5092589;28;20021;-71
2021/06/13 09:53:55;;;;;;;8.40;7.30;;;614.80;2432.00;;;;;;5091710;28;20504;-74
2021/06/13 09:56:38;;;;;;;9.23;8.27;;;614.70;2432.00;;;;;;5092368;28;20023;-71
2021/06/13 09:59:09;;;;;;;9.30;8.38;;;614.50;2432.00;;;;;;5071871;28;20055;-76
2021/06/13 10:01:55;;;;;;;9.25;8.13;;;614.50;2432.00;;;;;;5068096;28;20028;-80
2021/06/13 10:04:21;;;;;;;9.20;8.25;;;614.50;2432.00;;;;;;5067778;28;20021;-82
2021/06/13 10:06:49;;;;;;;9.98;8.30;;;614.60;2432.00;;;;;;5077708;28;20554;-82
2021/06/13 10:09:17;;;;;;;9.07;7.93;;;614.70;2432.00;;;;;;5075159;28;20037;-72
2021/06/13 10:11:45;;;;;;;9.77;7.80;;;614.50;2432.00;;;;;;5075663;28;20036;-72
2021/06/13 10:14:18;;;;;;;9.00;7.90;;;614.40;2432.00;;;;;;5064656;28;20024;-81
2021/06/13 10:16:52;;;;;;;11.45;7.00;;;589.70;2432.00;;;;;;5075506;28;20032;-79
2021/06/13 10:19:23;;;;;;;8.43;6.72;;;589.40;2432.00;;;;;;5075476;28;20066;-74
2021/06/13 10:21:50;;;;;;;8.82;6.75;;;589.40;2432.00;;;;;;5075765;28;20424;-75
2021/06/13 10:24:21;;;;;;;7.78;6.50;;;589.40;2432.00;;;;;;5075264;28;20013;-73
2021/06/13 10:26:56;;;;;;;8.00;7.13;;;614.50;2432.00;;;;;;5075629;28;20023;-73
2021/06/13 10:29:24;;;;;;;9.40;6.97;;;614.80;2432.00;;;;;;5070593;28;20028;-74
2021/06/13 10:31:55;;;;;;;7.90;7.10;;;615.10;2432.00;;;;;;5072520;28;20108;-74
2021/06/13 10:34:21;;;;;;;7.40;6.70;;;640.00;2432.00;;;;;;5056436;28;20036;-74
2021/06/13 10:36:48;;;;;;;10.40;7.20;;;640.10;2432.00;;;;;;5059889;28;20513;-74
2021/06/13 10:39:24;;;;;;;9.18;7.03;;;640.40;2432.00;;;;;;5060568;28;20029;-73
2021/06/13 10:41:50;;;;;;;7.95;7.15;;;640.10;2432.00;;;;;;5074048;28;20025;-72
2021/06/13 10:44:22;;;;;;;8.80;7.93;;;640.10;2432.00;;;;;;5073728;28;20020;-75
2021/06/13 10:46:50;;;;;;;10.27;7.85;;;640.10;2432.00;;;;;;5073868;28;20378;-77
2021/06/13 10:49:35;;;;;;;11.73;8.38;;;615.30;2432.00;;;;;;5073622;28;20104;-75
2021/06/13 10:52:09;;;;;;;9.93;7.60;;;640.10;2432.00;;;;;;5074770;28;20107;-74
2021/06/13 10:54:57;;;;;;;8.45;7.20;;;615.20;2432.00;;;;;;5074113;28;20021;-79
2021/06/13 10:57:24;;;;;;;7.93;7.13;;;615.20;2432.00;;;;;;5047077;28;20037;-75
2021/06/13 10:59:55;;;;;;;7.95;7.15;;;640.00;2432.00;;;;;;5068418;28;20029;-72
2021/06/13 11:02:23;;;;;;;8.10;7.30;;;615.20;2432.00;;;;;;5074998;28;20028;-75
2021/06/13 11:05:02;;;;;;;12.10;9.30;;;615.30;2432.00;;;;;;5074407;28;20488;-74
2021/06/13 11:07:28;;;;;;;10.35;9.20;;;640.10;2432.00;;;;;;5074705;28;20227;-72
2021/06/13 11:10:16;;;;;;;9.10;8.20;;;640.20;2432.00;;;;;;5074601;28;20033;-74
2021/06/13 11:12:52;;;;;;;8.77;7.88;;;640.40;2432.00;;;;;;5059125;28;20035;-75
2021/06/13 11:15:35;;;;;;;8.20;7.40;;;640.80;2432.00;;;;;;5061542;28;20028;-74
2021/06/13 11:18:26;;;;;;;8.13;7.32;;;640.70;2432.00;;;;;;5070315;28;20040;-76
2021/06/13 11:21:17;;;;;;;7.80;6.95;;;640.90;2432.00;;;;;;5058995;28;20032;-73
2021/06/13 11:23:43;;;;;;;7.22;6.53;;;640.80;2432.00;;;;;;5055351;28;20017;-73
2021/06/13 11:26:30;;;;;;;9.38;6.88;;;640.90;2432.00;;;;;;5062917;28;20405;-74
2021/06/13 11:28:56;;;;;;;7.15;6.45;;;640.90;2432.00;;;;;;5063703;28;20091;-73
2021/06/13 11:31:24;;;;;;;7.32;6.60;;;640.90;2432.00;;;;;;5073878;28;20034;-74
2021/06/13 11:33:54;;;;;;;9.90;7.25;;;665.90;2432.00;;;;;;5072573;28;20028;-73
2021/06/13 11:36:24;;;;;;;8.10;5.93;;;665.90;2432.00;;;;;;5071398;28;20209;-73
2021/06/13 11:39:13;;;;;;;9.23;5.30;;;665.90;2432.00;;;;;;5069334;28;20055;-73
2021/06/13 11:41:47;;;;;;;7.03;5.15;;;665.60;2432.00;;;;;;5061301;28;20025;-72
2021/06/13 11:44:37;;;;;;;8.27;5.47;;;665.60;2432.00;;;;;;5056215;28;20024;-72
2021/06/13 11:47:30;;;;;;;6.97;5.18;;;640.70;2432.00;;;;;;5060387;28;20585;-73
2021/06/13 11:49:57;;;;;;;6.35;4.95;;;640.80;2432.00;;;;;;5069961;28;20040;-73
2021/06/13 11:52:55;;;;;;;6.50;5.00;;;665.60;2432.00;;;;;;5069575;28;20051;-72
2021/06/13 11:55:51;;;;;;;7.05;5.25;;;640.90;2432.00;;;;;;5073577;28;20029;-72
2021/06/13 11:58:18;;;;;;;7.35;6.10;;;665.60;2432.00;;;;;;5073436;28;20119;-73
2021/06/13 12:00:44;;;;;;;8.02;4.70;;;640.90;2432.00;;;;;;5070030;28;20024;-73
2021/06/13 12:03:11;;;;;;;4.95;3.40;;;665.70;2432.00;;;;;;5073557;28;20027;-73
2021/06/13 12:05:37;;;;;;;9.25;3.13;;;665.60;2432.00;;;;;;5064377;28;20993;-79
2021/06/13 12:08:03;;;;;;;5.03;3.53;;;665.60;2432.00;;;;;;5051763;28;20146;-75
2021/06/13 12:10:31;;;;;;;7.70;3.90;;;640.70;2432.00;;;;;;5071213;28;20016;-74
2021/06/13 12:13:17;;;;;;;4.50;2.92;;;640.80;2432.00;;;;;;5054859;28;20029;-75
2021/06/13 12:15:43;;;;;;;5.65;2.90;;;665.60;2432.00;;;;;;5058555;28;20494;-75
2021/06/13 12:18:15;;;;;;;4.65;2.80;;;665.70;2432.00;;;;;;5073348;28;20028;-71
2021/06/13 12:20:41;;;;;;;4.65;2.90;;;665.60;2432.00;;;;;;5072731;28;20086;-73